Time;durP1;ratioP1;P1;durP2;ratioP2;P2;SDS_P1;SDS_P2;PMS_P1;PMS_P2;Temp;Humidity;BMP_temperature;BMP_pressure;BME280_temperature;BME280_humidity;BME280_pressure;Samples;Min_cycle;Max_cycle;Signal;HPM_P1;HPM_P2
2022/05/01 00:00:16;;;;;;;9.02;7.20;;;9.50;99.90;;;;;;4976739;28;20050;-69
2022/05/01 00:02:42;;;;;;;10.27;7.20;;;9.50;99.90;;;;;;4976454;28;20097;-69
2022/05/01 00:05:08;;;;;;;10.13;6.95;;;9.50;99.90;;;;;;4976496;28;20133;-69
2022/05/01 00:07:33;;;;;;;12.57;7.20;;;9.50;99.90;;;;;;4982879;28;20052;-68
2022/05/01 00:09:59;;;;;;;11.20;7.30;;;9.50;99.90;;;;;;4996296;28;20038;-69
2022/05/01 00:12:26;;;;;;;10.60;7.15;;;9.60;99.90;;;;;;4995982;28;20543;-69
2022/05/01 00:14:51;;;;;;;10.30;7.10;;;9.50;99.90;;;;;;4979945;28;20042;-69
2022/05/01 00:17:17;;;;;;;10.75;7.60;;;9.50;99.90;;;;;;4991620;28;20348;-69
2022/05/01 00:19:43;;;;;;;10.23;7.18;;;9.60;99.90;;;;;;4960786;28;20411;-69
2022/05/01 00:22:08;;;;;;;12.25;7.63;;;9.60;99.90;;;;;;4976771;28;20049;-69
2022/05/01 00:24:34;;;;;;;13.07;7.72;;;9.50;99.90;;;;;;4976251;28;20046;-69
2022/05/01 00:27:00;;;;;;;10.40;7.68;;;9.60;99.90;;;;;;4978354;28;20054;-69
2022/05/01 00:29:26;;;;;;;10.70;7.30;;;9.60;99.90;;;;;;4995940;28;20077;-69
2022/05/01 00:31:52;;;;;;;13.27;7.95;;;9.60;99.90;;;;;;4996008;28;20076;-70
2022/05/01 00:37:02;;;;;;;12.02;7.68;;;9.50;99.90;;;;;;4993567;28;20077;-70
2022/05/01 00:39:28;;;;;;;9.35;7.25;;;9.50;99.90;;;;;;4976611;28;20042;-70
2022/05/01 00:41:53;;;;;;;11.50;7.68;;;9.40;99.90;;;;;;4960832;28;20410;-70
2022/05/01 00:44:21;;;;;;;10.13;7.50;;;9.40;99.90;;;;;;4976011;28;20340;-69
2022/05/01 00:46:50;;;;;;;11.75;7.90;;;9.40;99.90;;;;;;4960007;28;20089;-69
2022/05/01 00:49:22;;;;;;;12.75;8.18;;;9.40;99.90;;;;;;4993140;28;20046;-71
2022/05/01 00:51:54;;;;;;;10.48;7.60;;;9.40;99.90;;;;;;4980202;28;20049;-69
2022/05/01 00:54:23;;;;;;;10.48;7.80;;;9.50;99.90;;;;;;4980007;28;20042;-69
2022/05/01 00:56:51;;;;;;;9.82;7.55;;;9.50;99.90;;;;;;4980553;28;20424;-69
2022/05/01 00:59:17;;;;;;;11.07;8.23;;;9.40;99.90;;;;;;5012773;28;20046;-69
2022/05/01 01:01:44;;;;;;;8.57;7.40;;;9.40;99.90;;;;;;4979752;28;20076;-69
2022/05/01 01:04:10;;;;;;;11.60;7.93;;;9.30;99.90;;;;;;4979605;28;20485;-69
2022/05/01 01:06:38;;;;;;;9.75;7.40;;;9.30;99.90;;;;;;4980128;28;20124;-68
2022/05/01 01:09:05;;;;;;;12.05;7.80;;;9.30;99.90;;;;;;4998312;28;20341;-69
2022/05/01 01:11:31;;;;;;;12.80;8.10;;;9.30;99.90;;;;;;4999000;28;20510;-70
2022/05/01 01:13:58;;;;;;;12.60;8.13;;;9.30;99.90;;;;;;4998740;28;20053;-69
2022/05/01 01:16:24;;;;;;;12.70;8.15;;;9.20;99.90;;;;;;4998730;28;20053;-69
2022/05/01 01:18:50;;;;;;;14.98;8.95;;;9.30;99.90;;;;;;4966500;28;20042;-70
2022/05/01 01:21:15;;;;;;;14.13;8.00;;;9.30;99.90;;;;;;4963312;28;20050;-68
2022/05/01 01:23:42;;;;;;;11.60;8.38;;;9.20;99.90;;;;;;4979126;28;20065;-71
2022/05/01 01:26:09;;;;;;;11.38;8.07;;;9.10;99.90;;;;;;4963691;28;20046;-69
2022/05/01 01:28:40;;;;;;;12.00;9.00;;;9.20;99.90;;;;;;4993148;28;20093;-69
2022/05/01 01:33:53;;;;;;;11.18;8.35;;;9.20;99.90;;;;;;4998432;28;20049;-69
2022/05/01 01:36:26;;;;;;;12.80;8.73;;;9.10;99.90;;;;;;4998993;28;20053;-69
2022/05/01 01:38:51;;;;;;;12.38;8.65;;;9.20;99.90;;;;;;4981988;28;20058;-70
2022/05/01 01:41:30;;;;;;;11.40;8.25;;;9.10;99.90;;;;;;4979631;28;20042;-69
2022/05/01 01:43:57;;;;;;;11.88;8.32;;;9.10;99.90;;;;;;4978689;28;20077;-69
2022/05/01 01:46:23;;;;;;;11.27;8.65;;;8.90;99.90;;;;;;4978483;28;20062;-69
2022/05/01 01:48:50;;;;;;;13.75;8.93;;;8.90;99.90;;;;;;4995066;28;20057;-69
2022/05/01 01:51:17;;;;;;;10.48;8.18;;;9.10;99.90;;;;;;4998343;28;20176;-69
2022/05/01 01:53:43;;;;;;;11.77;8.57;;;9.20;99.90;;;;;;4981667;28;20044;-69
2022/05/01 01:56:10;;;;;;;14.05;9.60;;;9.20;99.90;;;;;;4998777;28;20436;-69
2022/05/01 01:58:40;;;;;;;12.77;9.25;;;9.10;99.90;;;;;;4983995;28;20053;-69
2022/05/01 02:01:07;;;;;;;11.98;9.25;;;9.10;99.90;;;;;;4978594;28;20371;-70
2022/05/01 02:03:36;;;;;;;13.38;10.23;;;9.00;99.90;;;;;;4978369;28;20125;-70
2022/05/01 02:06:04;;;;;;;12.35;8.93;;;9.00;99.90;;;;;;4978737;28;20053;-70
2022/05/01 02:08:31;;;;;;;15.30;10.13;;;9.10;99.90;;;;;;4991819;28;20046;-69
2022/05/01 02:10:57;;;;;;;14.90;10.90;;;9.00;99.90;;;;;;4981694;28;20128;-69
2022/05/01 02:13:23;;;;;;;14.18;11.18;;;9.00;99.90;;;;;;4997829;28;20038;-72
2022/05/01 02:15:48;;;;;;;15.05;10.85;;;8.90;99.90;;;;;;4998255;28;20084;-69
2022/05/01 02:18:14;;;;;;;14.65;11.00;;;8.90;99.90;;;;;;4986428;28;20455;-70
2022/05/01 02:23:24;;;;;;;12.75;9.52;;;8.80;99.90;;;;;;4978060;28;20078;-70
2022/05/01 02:25:50;;;;;;;13.27;10.32;;;8.90;99.90;;;;;;4978506;28;20046;-69
2022/05/01 02:28:16;;;;;;;14.93;10.73;;;9.00;99.90;;;;;;4989314;28;20042;-70
2022/05/01 02:30:43;;;;;;;13.43;10.40;;;8.80;99.90;;;;;;4997574;28;20045;-71
2022/05/01 02:33:09;;;;;;;14.40;10.68;;;8.70;99.90;;;;;;4997413;28;20415;-69
2022/05/01 02:35:35;;;;;;;13.85;10.32;;;8.70;99.90;;;;;;4997695;28;20470;-69
2022/05/01 02:38:02;;;;;;;15.68;11.52;;;8.70;99.90;;;;;;4988321;28;20140;-69
2022/05/01 02:40:31;;;;;;;12.55;10.52;;;8.60;99.90;;;;;;4962340;28;20042;-70
2022/05/01 02:43:00;;;;;;;16.30;11.40;;;8.60;99.90;;;;;;4977902;28;20116;-70
2022/05/01 02:45:29;;;;;;;13.27;11.40;;;8.70;99.90;;;;;;4978010;28;20050;-70
2022/05/01 02:47:55;;;;;;;14.63;10.65;;;8.70;99.90;;;;;;4985467;28;20075;-70
2022/05/01 02:50:22;;;;;;;15.40;11.05;;;8.80;99.90;;;;;;4997869;28;20418;-70
2022/05/01 02:52:51;;;;;;;13.65;10.55;;;8.70;99.90;;;;;;4980878;28;20084;-70
2022/05/01 02:55:17;;;;;;;13.65;10.50;;;8.80;99.90;;;;;;4997153;28;20364;-69
2022/05/01 02:57:43;;;;;;;12.95;10.32;;;8.80;99.90;;;;;;4990309;28;20042;-70
2022/05/01 03:00:16;;;;;;;21.08;11.13;;;8.70;99.90;;;;;;4961667;28;20069;-71
2022/05/01 03:02:43;;;;;;;13.48;11.30;;;8.60;99.90;;;;;;4977327;28;20045;-71
2022/05/01 03:05:09;;;;;;;15.82;11.27;;;8.50;99.90;;;;;;4961612;28;20126;-71
2022/05/01 03:07:35;;;;;;;13.95;9.50;;;8.50;99.90;;;;;;4966934;28;20112;-70
2022/05/01 03:10:00;;;;;;;12.35;9.88;;;8.60;99.90;;;;;;4996767;28;20432;-70
2022/05/01 03:12:26;;;;;;;13.48;9.73;;;8.60;99.90;;;;;;4980331;28;20037;-70
2022/05/01 03:14:52;;;;;;;13.43;10.05;;;8.50;99.90;;;;;;4996680;28;20125;-71
2022/05/01 03:17:17;;;;;;;13.82;10.73;;;8.50;99.90;;;;;;4993541;28;20042;-70
2022/05/01 03:22:27;;;;;;;14.40;11.02;;;8.50;99.90;;;;;;4977438;28;20364;-71
2022/05/01 03:24:53;;;;;;;13.00;10.38;;;8.40;99.90;;;;;;4960648;28;20109;-70
2022/05/01 03:27:18;;;;;;;15.80;10.43;;;8.30;99.90;;;;;;4980559;28;20038;-70
2022/05/01 03:30:15;;;;;;;14.45;10.75;;;8.40;99.90;;;;;;4996454;28;20044;-70
2022/05/01 03:32:29;;;;;;;13.52;9.88;;;8.30;99.90;;;;;;4996505;28;20459;-70
2022/05/01 03:34:56;;;;;;;15.13;10.45;;;8.20;99.90;;;;;;4996180;28;20052;-70
2022/05/01 03:37:22;;;;;;;14.80;10.88;;;8.20;99.90;;;;;;4992992;28;20038;-70
2022/05/01 03:39:48;;;;;;;13.88;10.40;;;8.20;99.90;;;;;;4977440;28;20418;-69
2022/05/01 03:42:13;;;;;;;14.73;10.75;;;8.40;99.90;;;;;;4977204;28;20459;-69
2022/05/01 03:44:39;;;;;;;15.35;11.55;;;8.40;99.90;;;;;;4960779;28;20050;-70
2022/05/01 03:47:05;;;;;;;13.65;11.23;;;8.40;99.90;;;;;;4977337;28;20050;-70
2022/05/01 03:49:30;;;;;;;15.07;12.15;;;8.40;99.90;;;;;;4996186;28;20363;-71
2022/05/01 03:51:56;;;;;;;13.98;10.80;;;8.20;99.90;;;;;;4995876;28;20383;-69
2022/05/01 03:54:22;;;;;;;14.38;10.90;;;8.20;99.90;;;;;;4995898;28;20120;-70
2022/05/01 03:56:47;;;;;;;16.50;12.02;;;8.30;99.90;;;;;;4980287;28;20053;-69
2022/05/01 03:59:13;;;;;;;16.63;12.02;;;8.30;99.90;;;;;;4961901;28;20065;-70
2022/05/01 04:01:39;;;;;;;14.63;11.05;;;8.20;99.90;;;;;;4976575;28;20514;-71
2022/05/01 04:04:05;;;;;;;14.40;11.32;;;8.10;99.90;;;;;;4976713;28;20087;-70
2022/05/01 04:06:31;;;;;;;15.18;12.38;;;8.10;99.90;;;;;;4976903;28;20046;-70
2022/05/01 04:08:56;;;;;;;16.60;12.57;;;8.10;99.90;;;;;;4976462;28;20073;-69
2022/05/01 04:11:22;;;;;;;14.73;11.68;;;8.10;99.90;;;;;;4996307;28;20451;-69
2022/05/01 04:13:48;;;;;;;14.98;11.57;;;8.20;99.90;;;;;;4996090;28;20037;-70
2022/05/01 04:16:14;;;;;;;20.67;11.90;;;8.20;99.90;;;;;;4995845;28;20041;-70
2022/05/01 04:18:40;;;;;;;17.30;12.65;;;8.10;99.90;;;;;;4981982;28;20060;-69
2022/05/01 04:21:07;;;;;;;16.50;12.70;;;8.20;99.90;;;;;;4976466;28;20038;-70
2022/05/01 04:23:32;;;;;;;18.05;13.18;;;8.20;99.90;;;;;;4976268;28;20130;-70
2022/05/01 04:25:58;;;;;;;15.45;12.27;;;8.10;99.90;;;;;;4980161;28;20042;-70
2022/05/01 04:28:24;;;;;;;18.60;13.50;;;8.00;99.90;;;;;;4991557;28;20132;-69
2022/05/01 04:30:52;;;;;;;15.70;12.98;;;8.20;99.90;;;;;;5000335;28;20124;-70
2022/05/01 04:33:18;;;;;;;15.15;13.52;;;8.20;99.90;;;;;;4999168;28;20038;-69
2022/05/01 04:35:47;;;;;;;15.48;12.48;;;8.10;99.90;;;;;;4983732;28;20149;-71
2022/05/01 04:38:23;;;;;;;15.00;12.13;;;8.00;99.90;;;;;;4983037;28;20143;-70
2022/05/01 04:40:52;;;;;;;14.95;11.80;;;8.10;99.90;;;;;;4999898;28;20104;-69
2022/05/01 04:43:23;;;;;;;16.50;12.13;;;8.10;99.90;;;;;;4999437;28;20494;-70
2022/05/01 04:45:51;;;;;;;16.13;12.23;;;8.00;99.90;;;;;;5015840;28;20522;-70
2022/05/01 04:48:19;;;;;;;15.38;12.40;;;8.00;99.90;;;;;;4988956;28;20049;-69
2022/05/01 04:50:46;;;;;;;17.67;11.85;;;8.00;99.90;;;;;;4980075;28;20137;-71
2022/05/01 04:53:13;;;;;;;16.58;12.57;;;8.00;99.90;;;;;;4979582;28;20038;-70
2022/05/01 04:55:43;;;;;;;15.50;12.60;;;8.20;99.90;;;;;;4964117;28;20157;-70
2022/05/01 04:58:11;;;;;;;15.73;12.27;;;8.10;99.90;;;;;;4988832;28;20041;-71
2022/05/01 05:00:38;;;;;;;16.52;12.95;;;8.00;99.90;;;;;;4999441;28;20124;-69
2022/05/01 05:03:05;;;;;;;16.80;12.68;;;8.10;99.90;;;;;;4998797;28;20042;-71
2022/05/01 05:05:31;;;;;;;16.80;13.02;;;8.10;99.90;;;;;;4999580;28;20613;-69
2022/05/01 05:10:46;;;;;;;18.40;13.88;;;8.00;99.90;;;;;;4979669;28;20129;-70
2022/05/01 05:13:16;;;;;;;15.30;11.93;;;8.00;99.90;;;;;;4979297;28;20145;-71
2022/05/01 05:15:42;;;;;;;17.58;13.23;;;8.00;99.90;;;;;;4979597;28;20039;-71
2022/05/01 05:18:08;;;;;;;16.77;13.23;;;8.20;99.90;;;;;;4988461;28;20041;-70
2022/05/01 05:20:33;;;;;;;15.77;13.07;;;8.50;99.90;;;;;;4999155;28;20445;-70
2022/05/01 05:22:59;;;;;;;18.38;12.95;;;8.80;99.90;;;;;;4998535;28;20041;-69
2022/05/01 05:25:25;;;;;;;17.90;12.95;;;8.90;99.90;;;;;;4982723;28;20076;-70
2022/05/01 05:27:50;;;;;;;18.65;13.32;;;8.90;99.90;;;;;;4992367;28;20038;-70
2022/05/01 05:30:16;;;;;;;16.15;13.00;;;8.80;99.90;;;;;;4963234;28;20460;-69
2022/05/01 05:32:42;;;;;;;17.88;12.43;;;8.70;99.90;;;;;;4962859;28;20038;-69
2022/05/01 05:35:08;;;;;;;17.05;12.77;;;8.70;99.90;;;;;;4978581;28;20057;-70
2022/05/01 05:37:33;;;;;;;15.07;12.35;;;9.10;99.90;;;;;;4983399;28;20033;-70
2022/05/01 05:40:00;;;;;;;19.05;12.52;;;9.80;99.90;;;;;;4998336;28;20045;-71
2022/05/01 05:42:26;;;;;;;14.75;12.40;;;10.70;99.90;;;;;;5014988;28;20038;-70
2022/05/01 05:44:52;;;;;;;15.23;12.73;;;10.80;99.90;;;;;;5014584;28;20053;-70
2022/05/01 05:47:17;;;;;;;19.23;12.68;;;10.50;99.90;;;;;;5012756;28;20042;-70
2022/05/01 05:49:43;;;;;;;17.48;11.98;;;10.10;99.90;;;;;;4996931;28;20050;-73
2022/05/01 05:52:09;;;;;;;17.20;12.20;;;10.00;99.90;;;;;;5005279;28;20370;-71
2022/05/01 05:54:34;;;;;;;16.08;12.35;;;9.80;99.90;;;;;;4995991;28;20044;-70
2022/05/01 05:57:00;;;;;;;15.13;11.70;;;9.70;99.90;;;;;;5010265;28;20034;-71
2022/05/01 05:59:26;;;;;;;16.58;12.90;;;9.50;99.90;;;;;;5012784;28;20104;-70
2022/05/01 06:01:51;;;;;;;16.95;13.35;;;9.30;99.90;;;;;;5006812;28;20816;-70
2022/05/01 06:04:17;;;;;;;17.13;12.20;;;9.20;99.90;;;;;;5008309;28;20534;-70
2022/05/01 06:06:43;;;;;;;17.08;13.02;;;9.10;99.90;;;;;;5013692;28;20038;-69
2022/05/01 06:09:09;;;;;;;14.60;12.55;;;9.00;99.90;;;;;;5002468;28;20049;-69
2022/05/01 06:11:38;;;;;;;17.25;13.32;;;9.10;99.90;;;;;;4997517;28;20458;-70
2022/05/01 06:14:04;;;;;;;18.90;13.52;;;9.20;99.90;;;;;;5002786;28;20132;-69
2022/05/01 06:16:31;;;;;;;18.27;14.15;;;9.20;99.90;;;;;;4981252;28;20125;-69
2022/05/01 06:18:58;;;;;;;17.63;13.15;;;9.40;99.90;;;;;;5003749;28;20137;-70
2022/05/01 06:21:24;;;;;;;18.45;13.63;;;9.90;99.90;;;;;;5012399;28;20069;-70
2022/05/01 06:23:50;;;;;;;15.68;13.43;;;11.10;99.90;;;;;;5012342;28;20438;-70
2022/05/01 06:26:15;;;;;;;15.98;13.30;;;12.30;99.90;;;;;;5013729;28;20419;-70
2022/05/01 06:28:41;;;;;;;16.83;12.05;;;13.20;99.90;;;;;;5007946;28;20042;-70
2022/05/01 06:31:07;;;;;;;15.73;12.30;;;13.80;99.90;;;;;;5013680;28;20099;-71
2022/05/01 06:33:36;;;;;;;16.92;11.93;;;13.90;99.90;;;;;;5013258;28;20038;-71
2022/05/01 06:36:03;;;;;;;15.13;12.80;;;13.70;99.90;;;;;;5013666;28;20034;-70
2022/05/01 06:38:29;;;;;;;15.85;12.63;;;13.10;99.90;;;;;;4989304;28;20497;-71
2022/05/01 06:40:55;;;;;;;16.13;11.95;;;12.60;99.90;;;;;;5005353;28;20092;-71
2022/05/01 06:43:22;;;;;;;15.40;12.13;;;12.40;99.90;;;;;;5013460;28;20050;-70
2022/05/01 06:45:48;;;;;;;14.05;11.55;;;11.90;99.90;;;;;;5013872;28;20069;-71
2022/05/01 06:48:14;;;;;;;14.95;12.30;;;11.70;99.90;;;;;;4997244;28;20476;-70
2022/05/01 06:50:40;;;;;;;16.85;12.18;;;11.70;99.90;;;;;;4978633;28;20053;-71
2022/05/01 06:53:06;;;;;;;14.38;11.82;;;11.70;99.90;;;;;;5013517;28;20374;-69
2022/05/01 06:55:32;;;;;;;14.07;11.85;;;11.80;99.90;;;;;;4997554;28;20438;-69
2022/05/01 06:57:58;;;;;;;15.10;12.25;;;11.90;99.90;;;;;;4997225;28;20034;-69
2022/05/01 07:00:24;;;;;;;16.63;12.20;;;12.00;99.90;;;;;;5006550;28;20034;-68
2022/05/01 07:02:52;;;;;;;13.95;11.43;;;12.60;99.90;;;;;;5004900;28;20053;-72
2022/05/01 07:05:19;;;;;;;16.23;11.32;;;13.00;99.90;;;;;;4978009;28;20423;-69
2022/05/01 07:07:50;;;;;;;14.52;11.05;;;13.50;99.90;;;;;;4996771;28;20045;-72
2022/05/01 07:10:16;;;;;;;14.98;11.15;;;13.70;99.90;;;;;;5018332;28;20049;-71
2022/05/01 07:12:42;;;;;;;12.05;10.02;;;13.80;99.90;;;;;;4996988;28;20068;-70
2022/05/01 07:15:08;;;;;;;13.90;11.30;;;14.30;99.90;;;;;;5013760;28;20132;-68
2022/05/01 07:17:34;;;;;;;13.80;11.15;;;14.10;99.90;;;;;;5011304;28;20037;-69
2022/05/01 07:20:00;;;;;;;17.73;11.38;;;14.60;99.90;;;;;;5013414;28;20041;-68
2022/05/01 07:22:26;;;;;;;14.35;11.50;;;14.70;99.90;;;;;;4997333;28;20040;-69
2022/05/01 07:24:52;;;;;;;13.82;11.00;;;15.00;99.90;;;;;;5012408;28;20045;-70
2022/05/01 07:27:17;;;;;;;12.95;10.50;;;15.50;99.90;;;;;;4996264;28;20041;-69
2022/05/01 07:29:44;;;;;;;13.48;10.32;;;15.70;99.90;;;;;;4977783;28;20038;-70
2022/05/01 07:32:09;;;;;;;11.32;9.13;;;15.50;99.90;;;;;;4977709;28;20085;-70
2022/05/01 07:34:36;;;;;;;10.27;8.00;;;15.50;99.90;;;;;;4977471;28;20042;-71
2022/05/01 07:37:01;;;;;;;11.32;9.85;;;15.30;99.90;;;;;;4977710;28;20049;-69
2022/05/01 07:39:27;;;;;;;13.85;10.27;;;15.30;99.90;;;;;;4979756;28;20046;-69
2022/05/01 07:41:53;;;;;;;13.38;10.27;;;14.90;99.90;;;;;;4999523;28;20042;-69
2022/05/01 07:44:20;;;;;;;13.15;9.20;;;14.70;99.90;;;;;;4995162;28;20037;-69
2022/05/01 07:46:45;;;;;;;11.07;9.60;;;14.60;99.90;;;;;;5012034;28;20049;-70
2022/05/01 07:49:12;;;;;;;12.70;9.48;;;14.70;99.90;;;;;;5004655;28;20041;-69
2022/05/01 07:51:38;;;;;;;11.35;8.27;;;14.80;99.90;;;;;;5005671;28;20081;-70
2022/05/01 07:54:05;;;;;;;12.02;8.75;;;14.90;99.90;;;;;;4995187;28;20045;-67
2022/05/01 07:56:32;;;;;;;11.60;8.82;;;14.90;99.90;;;;;;4996182;28;20042;-69
2022/05/01 07:58:58;;;;;;;11.98;8.95;;;14.80;99.90;;;;;;4980068;28;20116;-69
2022/05/01 08:01:25;;;;;;;9.48;7.97;;;15.00;99.90;;;;;;4975108;28;20042;-67
2022/05/01 08:06:35;;;;;;;12.25;7.43;;;14.60;99.90;;;;;;4994858;28;20160;-69
2022/05/01 08:09:01;;;;;;;11.85;6.38;;;14.60;99.90;;;;;;4979568;28;20348;-69
2022/05/01 08:11:27;;;;;;;9.75;6.95;;;14.70;99.90;;;;;;4975002;28;20039;-69
2022/05/01 08:13:53;;;;;;;8.52;6.88;;;14.60;99.90;;;;;;4975256;28;20045;-69
2022/05/01 08:16:20;;;;;;;9.18;6.82;;;14.60;99.90;;;;;;5011884;28;20026;-70
2022/05/01 08:21:32;;;;;;;7.63;6.15;;;14.80;99.90;;;;;;4987152;28;20049;-67
2022/05/01 08:23:59;;;;;;;9.20;6.82;;;15.20;99.90;;;;;;4999426;28;20493;-68
2022/05/01 08:26:25;;;;;;;8.77;6.78;;;15.00;99.90;;;;;;4980454;28;20046;-68
2022/05/01 08:28:53;;;;;;;9.75;6.18;;;15.00;99.90;;;;;;4982668;28;20052;-69
2022/05/01 08:31:18;;;;;;;9.10;6.70;;;15.20;99.90;;;;;;4977080;28;20043;-69
2022/05/01 08:33:44;;;;;;;7.88;6.05;;;15.40;99.90;;;;;;4960737;28;20125;-68
2022/05/01 08:36:10;;;;;;;10.73;6.20;;;15.30;99.90;;;;;;4975693;28;20049;-69
2022/05/01 08:38:37;;;;;;;8.60;6.22;;;15.10;99.90;;;;;;4987834;28;20069;-69
2022/05/01 08:41:03;;;;;;;9.45;5.85;;;15.00;99.90;;;;;;4996629;28;20050;-68
2022/05/01 08:43:29;;;;;;;8.65;5.75;;;14.90;99.90;;;;;;4996281;28;20057;-69
2022/05/01 08:46:26;;;;;;;9.55;5.55;;;15.10;99.90;;;;;;4996086;28;20364;-69
2022/05/01 08:49:05;;;;;;;7.53;5.20;;;14.60;99.90;;;;;;4983171;28;20069;-70
2022/05/01 08:51:35;;;;;;;7.68;6.00;;;14.70;99.90;;;;;;4976923;28;20456;-69
2022/05/01 08:54:06;;;;;;;7.95;6.05;;;14.90;99.90;;;;;;4976592;28;20035;-69
2022/05/01 08:56:36;;;;;;;9.93;6.00;;;15.20;99.90;;;;;;4977032;28;20096;-69
2022/05/01 08:59:04;;;;;;;8.77;5.50;;;15.20;99.90;;;;;;4991002;28;20490;-70
2022/05/01 09:01:34;;;;;;;9.07;6.18;;;15.10;99.90;;;;;;4996237;28;20088;-69
2022/05/01 09:04:01;;;;;;;8.60;5.85;;;15.20;99.90;;;;;;4996023;28;20073;-69
2022/05/01 09:06:27;;;;;;;9.50;6.28;;;15.30;99.90;;;;;;4996318;28;20072;-70
2022/05/01 09:08:53;;;;;;;8.43;6.03;;;15.30;99.90;;;;;;4966701;28;20054;-69
2022/05/01 09:14:04;;;;;;;8.73;6.38;;;15.30;99.90;;;;;;4980027;28;20053;-70
2022/05/01 09:16:31;;;;;;;7.75;5.40;;;15.30;99.90;;;;;;4980631;28;20042;-69
2022/05/01 09:18:56;;;;;;;8.25;5.72;;;15.20;99.90;;;;;;4993816;28;20103;-71
2022/05/01 09:21:22;;;;;;;10.65;6.93;;;15.00;99.90;;;;;;4999835;28;20128;-69
2022/05/01 09:23:48;;;;;;;8.45;6.22;;;15.00;99.90;;;;;;4999640;28;20143;-69
2022/05/01 09:26:16;;;;;;;8.25;5.97;;;15.00;99.90;;;;;;4999494;28;20180;-69
2022/05/01 09:28:51;;;;;;;10.18;6.70;;;15.30;99.90;;;;;;4972009;28;20054;-69
2022/05/01 09:31:18;;;;;;;8.18;6.00;;;15.50;99.90;;;;;;4980368;28;20046;-69
2022/05/01 09:33:44;;;;;;;7.93;6.20;;;15.70;99.90;;;;;;4980016;28;20360;-68
2022/05/01 09:36:36;;;;;;;9.75;5.97;;;16.00;99.70;;;;;;4980189;28;20467;-69
2022/05/01 09:39:03;;;;;;;10.25;6.63;;;16.20;99.60;;;;;;4993850;28;20085;-69
2022/05/01 09:41:29;;;;;;;8.73;6.93;;;16.00;99.10;;;;;;4999307;28;20049;-69
2022/05/01 09:43:54;;;;;;;9.73;7.00;;;16.10;99.30;;;;;;4999296;28;20091;-69
2022/05/01 09:46:22;;;;;;;8.88;6.18;;;15.90;99.40;;;;;;4995802;28;20518;-69
2022/05/01 09:48:57;;;;;;;9.45;6.80;;;16.00;98.80;;;;;;4995539;28;20182;-69
2022/05/01 09:51:23;;;;;;;10.30;6.03;;;15.50;99.40;;;;;;4995892;28;20104;-68
2022/05/01 09:53:49;;;;;;;9.05;6.15;;;15.70;99.60;;;;;;5012038;28;20121;-69
2022/05/01 09:56:15;;;;;;;10.10;5.85;;;15.80;98.80;;;;;;4996007;28;20034;-69
2022/05/01 09:58:40;;;;;;;7.78;6.30;;;16.20;98.50;;;;;;4996492;28;20097;-71
2022/05/01 10:01:11;;;;;;;8.90;5.45;;;16.30;98.50;;;;;;4979627;28;20434;-69
2022/05/01 10:03:46;;;;;;;7.05;5.45;;;16.50;97.70;;;;;;4979094;28;20042;-70
2022/05/01 10:06:14;;;;;;;8.75;6.20;;;16.70;97.30;;;;;;4995529;28;20050;-69
2022/05/01 10:08:42;;;;;;;10.55;6.88;;;16.70;97.10;;;;;;4978321;28;20038;-70
2022/05/01 10:11:08;;;;;;;7.35;5.70;;;16.60;97.50;;;;;;4995935;28;20046;-70
2022/05/01 10:13:35;;;;;;;9.00;6.57;;;16.40;96.90;;;;;;4995326;28;20459;-70
2022/05/01 10:16:04;;;;;;;7.72;5.57;;;16.20;97.70;;;;;;4995696;28;20042;-69
2022/05/01 10:18:30;;;;;;;9.52;6.13;;;16.40;97.00;;;;;;4985829;28;20476;-69
2022/05/01 10:20:56;;;;;;;8.25;5.97;;;16.40;97.20;;;;;;4975886;28;20050;-69
2022/05/01 10:23:22;;;;;;;8.98;6.00;;;16.40;97.30;;;;;;4991892;28;20039;-69
2022/05/01 10:25:54;;;;;;;7.85;5.90;;;16.30;97.50;;;;;;4960252;28;20042;-70
2022/05/01 10:28:54;;;;;;;7.60;5.82;;;16.00;96.90;;;;;;4983744;28;20100;-69
2022/05/01 10:35:10;;;;;;;6.72;5.45;;;15.40;97.50;;;;;;4979066;28;20125;-70
2022/05/01 10:37:47;;;;;;;10.50;5.85;;;15.50;97.50;;;;;;4992982;28;20100;-70
2022/05/01 10:40:13;;;;;;;9.38;5.60;;;15.40;97.40;;;;;;4975781;28;20172;-69
2022/05/01 10:42:49;;;;;;;9.73;6.07;;;15.40;97.80;;;;;;4975175;28;20034;-70
2022/05/01 10:45:21;;;;;;;8.23;4.97;;;15.50;97.80;;;;;;4958731;28;20138;-69
2022/05/01 10:47:55;;;;;;;6.43;4.25;;;15.30;97.60;;;;;;4978356;28;20042;-70
2022/05/01 10:50:28;;;;;;;5.63;4.35;;;15.30;96.00;;;;;;4962573;28;20128;-68
2022/05/01 10:53:03;;;;;;;8.60;4.53;;;15.30;97.00;;;;;;4978663;28;20129;-67
2022/05/01 10:55:40;;;;;;;5.05;3.30;;;15.10;95.30;;;;;;4994640;28;20070;-70
2022/05/01 10:58:27;;;;;;;5.82;3.75;;;15.20;94.50;;;;;;4977711;28;20046;-70
2022/05/01 11:01:00;;;;;;;6.55;3.70;;;15.30;95.10;;;;;;4994843;28;20041;-70
2022/05/01 11:03:36;;;;;;;6.60;4.10;;;15.40;95.40;;;;;;4979488;28;20125;-70
2022/05/01 11:06:02;;;;;;;5.03;3.72;;;15.30;95.50;;;;;;4994945;28;20124;-69
2022/05/01 11:08:30;;;;;;;7.57;4.40;;;15.10;95.80;;;;;;4985698;28;20109;-70
2022/05/01 11:10:58;;;;;;;6.25;4.15;;;15.10;95.90;;;;;;4991361;28;20046;-69
2022/05/01 11:13:28;;;;;;;5.97;4.25;;;15.10;95.60;;;;;;4975019;28;20042;-70
2022/05/01 11:15:55;;;;;;;6.00;3.75;;;15.20;95.70;;;;;;4975072;28;20392;-70
2022/05/01 11:18:34;;;;;;;5.55;3.50;;;15.30;95.50;;;;;;4982441;28;20046;-69
2022/05/01 11:21:22;;;;;;;7.18;3.78;;;15.30;95.00;;;;;;4994190;28;20368;-69
2022/05/01 11:24:02;;;;;;;6.90;3.60;;;15.60;94.60;;;;;;4994220;28;20045;-71
2022/05/01 11:26:28;;;;;;;5.18;3.55;;;15.60;94.70;;;;;;5010575;28;20049;-71
2022/05/01 11:28:55;;;;;;;6.28;3.55;;;15.20;94.70;;;;;;4965710;28;20499;-70
2022/05/01 11:31:35;;;;;;;4.80;3.35;;;15.20;95.00;;;;;;4975010;28;20358;-69
2022/05/01 11:34:20;;;;;;;7.05;3.55;;;15.20;95.30;;;;;;4974051;28;20088;-69
2022/05/01 11:36:53;;;;;;;;;;;15.20;94.80;;;;;;4975333;28;20047;-69
2022/05/01 11:39:19;;;;;;;6.57;4.00;;;15.20;94.60;;;;;;4989674;28;19921;-70
2022/05/01 11:41:47;;;;;;;4.90;3.55;;;14.90;95.40;;;;;;5010284;28;20042;-69
2022/05/01 11:44:23;;;;;;;5.90;3.90;;;15.00;95.50;;;;;;4994053;28;20046;-68
2022/05/01 11:46:49;;;;;;;6.25;3.75;;;15.00;95.60;;;;;;4993702;28;20091;-69
2022/05/01 11:49:15;;;;;;;6.18;3.72;;;15.10;95.70;;;;;;4978694;28;20457;-69
2022/05/01 11:51:40;;;;;;;7.10;4.20;;;15.20;95.20;;;;;;4975073;28;20047;-69
2022/05/01 11:54:09;;;;;;;5.68;3.28;;;15.10;95.40;;;;;;4974080;28;20468;-69
2022/05/01 12:04:49;;;;;;;4.25;3.28;;;15.60;95.50;;;;;;4993879;28;20050;-70
2022/05/01 12:07:20;;;;;;;7.47;3.50;;;15.80;95.40;;;;;;4993792;28;20046;-70
2022/05/01 12:09:47;;;;;;;5.65;3.15;;;15.80;95.10;;;;;;4958574;28;20420;-70
2022/05/01 12:12:16;;;;;;;6.95;3.47;;;15.80;94.90;;;;;;4973844;28;20043;-70
2022/05/01 12:14:43;;;;;;;8.77;3.83;;;15.90;95.00;;;;;;4990654;28;20038;-71
2022/05/01 12:17:14;;;;;;;5.78;3.72;;;16.20;94.90;;;;;;4974024;28;20047;-67
2022/05/01 12:19:48;;;;;;;6.47;3.80;;;16.30;94.80;;;;;;4993055;28;20039;-68
2022/05/01 12:22:20;;;;;;;;;;;16.30;94.50;;;;;;4993458;28;20518;-68
2022/05/01 12:24:48;;;;;;;5.35;3.92;;;16.30;94.40;;;;;;4993461;28;19934;-67
2022/05/01 12:27:15;;;;;;;6.25;4.15;;;16.40;94.40;;;;;;4993652;28;20038;-67
2022/05/01 12:29:49;;;;;;;6.47;4.68;;;16.30;94.40;;;;;;4992238;28;20043;-68
2022/05/01 12:32:18;;;;;;;6.75;4.30;;;16.30;94.20;;;;;;4993695;28;20068;-67
2022/05/01 12:34:43;;;;;;;6.60;4.10;;;16.20;94.60;;;;;;4993194;28;20463;-68
2022/05/01 12:37:14;;;;;;;8.15;4.10;;;16.30;94.50;;;;;;4977487;28;20038;-69
2022/05/01 12:39:41;;;;;;;7.25;3.60;;;16.30;93.50;;;;;;4975908;28;20496;-68
2022/05/01 12:45:18;;;;;;;4.88;3.40;;;16.10;94.20;;;;;;4974119;28;20059;-68
2022/05/01 12:47:48;;;;;;;5.03;3.67;;;15.90;94.20;;;;;;4979115;28;20062;-69
2022/05/01 12:50:21;;;;;;;6.03;4.47;;;16.30;93.50;;;;;;5013543;28;20577;-69
2022/05/01 12:52:51;;;;;;;7.50;4.05;;;16.30;93.70;;;;;;4996659;28;20042;-69
2022/05/01 12:55:19;;;;;;;4.95;3.58;;;16.30;93.80;;;;;;4981153;28;20121;-68
2022/05/01 12:57:52;;;;;;;6.35;3.88;;;16.20;93.90;;;;;;4962283;28;20050;-68
2022/05/01 13:00:37;;;;;;;7.40;3.80;;;16.30;93.70;;;;;;4977686;28;20053;-68
2022/05/01 13:03:33;;;;;;;6.95;3.58;;;16.40;93.80;;;;;;4977131;28;20121;-68
2022/05/01 13:06:11;;;;;;;5.72;3.85;;;16.30;93.30;;;;;;4977464;28;20189;-69
2022/05/01 13:08:48;;;;;;;4.97;3.33;;;16.30;93.60;;;;;;4961883;28;20469;-69
2022/05/01 13:11:24;;;;;;;7.05;3.90;;;16.30;93.50;;;;;;4961469;28;20129;-70
2022/05/01 13:14:01;;;;;;;4.53;2.72;;;16.30;93.30;;;;;;4977033;28;20068;-69
2022/05/01 13:16:30;;;;;;;4.10;2.55;;;16.30;92.80;;;;;;4977019;28;20094;-69
2022/05/01 13:18:58;;;;;;;5.05;2.80;;;16.10;92.60;;;;;;4988423;28;20049;-69
2022/05/01 13:21:30;;;;;;;4.50;2.70;;;16.00;92.70;;;;;;4996853;28;20125;-69